sensor_id;sensor_type;location;lat;lon;timestamp;pressure;altitude;pressure_sealevel;temperature;humidity
68656;BME280;55638;51.122;13.606;2022-11-18T00:00:35;98554.56;;;3.58;66.18
68656;BME280;55638;51.122;13.606;2022-11-18T00:02:07;98548.97;;;3.61;65.91
68656;BME280;55638;51.122;13.606;2022-11-18T00:03:40;98554.16;;;3.63;66.01
68656;BME280;55638;51.122;13.606;2022-11-18T00:05:12;98552.19;;;3.65;66.07
68656;BME280;55638;51.122;13.606;2022-11-18T00:06:44;98552.06;;;3.67;65.97
68656;BME280;55638;51.122;13.606;2022-11-18T00:08:15;98548.13;;;3.71;66.00
68656;BME280;55638;51.122;13.606;2022-11-18T00:09:47;98549.84;;;3.72;65.96
68656;BME280;55638;51.122;13.606;2022-11-18T00:11:21;98554.34;;;3.71;65.84
68656;BME280;55638;51.122;13.606;2022-11-18T00:13:12;98551.53;;;3.73;65.68
68656;BME280;55638;51.122;13.606;2022-11-18T00:15:03;98550.53;;;3.74;65.74
68656;BME280;55638;51.122;13.606;2022-11-18T00:16:35;98551.28;;;3.76;65.98
68656;BME280;55638;51.122;13.606;2022-11-18T00:18:07;98552.00;;;3.78;65.91
68656;BME280;55638;51.122;13.606;2022-11-18T00:19:39;98556.34;;;3.79;65.92
68656;BME280;55638;51.122;13.606;2022-11-18T00:21:11;98555.34;;;3.80;65.72
68656;BME280;55638;51.122;13.606;2022-11-18T00:22:44;98545.41;;;3.82;65.66
68656;BME280;55638;51.122;13.606;2022-11-18T00:24:16;98544.41;;;3.83;65.64
68656;BME280;55638;51.122;13.606;2022-11-18T00:25:48;98553.25;;;3.83;65.81
68656;BME280;55638;51.122;13.606;2022-11-18T00:27:20;98548.75;;;3.84;65.60
68656;BME280;55638;51.122;13.606;2022-11-18T00:28:52;98544.16;;;3.86;65.74
68656;BME280;55638;51.122;13.606;2022-11-18T00:30:24;98548.50;;;3.87;65.52
68656;BME280;55638;51.122;13.606;2022-11-18T00:31:56;98550.22;;;3.88;65.71
68656;BME280;55638;51.122;13.606;2022-11-18T00:33:28;98539.53;;;3.88;65.56
68656;BME280;55638;51.122;13.606;2022-11-18T00:35:00;98544.72;;;3.90;65.47
68656;BME280;55638;51.122;13.606;2022-11-18T00:36:32;98540.22;;;3.90;65.49
68656;BME280;55638;51.122;13.606;2022-11-18T00:38:03;98555.28;;;3.91;65.41
68656;BME280;55638;51.122;13.606;2022-11-18T00:39:35;98551.63;;;3.92;65.51
68656;BME280;55638;51.122;13.606;2022-11-18T00:41:09;98556.97;;;3.92;65.40
68656;BME280;55638;51.122;13.606;2022-11-18T00:42:42;98557.81;;;3.93;65.35
68656;BME280;55638;51.122;13.606;2022-11-18T00:44:23;98562.31;;;3.92;65.39
68656;BME280;55638;51.122;13.606;2022-11-18T00:45:55;98560.47;;;3.93;65.38
68656;BME280;55638;51.122;13.606;2022-11-18T00:47:27;98556.97;;;3.92;65.37
68656;BME280;55638;51.122;13.606;2022-11-18T00:48:59;98565.81;;;3.93;65.36
68656;BME280;55638;51.122;13.606;2022-11-18T00:50:30;98570.19;;;3.94;65.38
68656;BME280;55638;51.122;13.606;2022-11-18T00:52:03;98568.38;;;3.94;65.40
68656;BME280;55638;51.122;13.606;2022-11-18T00:53:36;98567.38;;;3.95;65.39
68656;BME280;55638;51.122;13.606;2022-11-18T00:55:08;98567.38;;;3.95;65.22
68656;BME280;55638;51.122;13.606;2022-11-18T00:56:40;98564.00;;;3.93;65.20
68656;BME280;55638;51.122;13.606;2022-11-18T00:58:12;98565.56;;;3.96;65.33
68656;BME280;55638;51.122;13.606;2022-11-18T00:59:46;98562.63;;;3.99;64.93
68656;BME280;55638;51.122;13.606;2022-11-18T01:01:18;98563.72;;;3.96;65.11
68656;BME280;55638;51.122;13.606;2022-11-18T01:02:50;98566.41;;;3.96;65.37
68656;BME280;55638;51.122;13.606;2022-11-18T01:04:22;98566.56;;;3.95;65.38
68656;BME280;55638;51.122;13.606;2022-11-18T01:05:54;98566.56;;;3.95;65.52
68656;BME280;55638;51.122;13.606;2022-11-18T01:07:25;98563.88;;;3.95;65.41
68656;BME280;55638;51.122;13.606;2022-11-18T01:08:57;98567.38;;;3.95;65.70
68656;BME280;55638;51.122;13.606;2022-11-18T01:10:29;98573.56;;;3.96;65.69
68656;BME280;55638;51.122;13.606;2022-11-18T01:12:01;98563.72;;;3.96;65.65
68656;BME280;55638;51.122;13.606;2022-11-18T01:13:53;98567.13;;;3.98;65.60
68656;BME280;55638;51.122;13.606;2022-11-18T01:15:25;98569.78;;;3.98;65.31
68656;BME280;55638;51.122;13.606;2022-11-18T01:16:57;98570.63;;;3.99;65.41
68656;BME280;55638;51.122;13.606;2022-11-18T01:18:29;98567.13;;;3.98;65.39
68656;BME280;55638;51.122;13.606;2022-11-18T01:20:01;98559.22;;;3.97;65.36
68656;BME280;55638;51.122;13.606;2022-11-18T01:21:33;98565.44;;;3.97;65.31
68656;BME280;55638;51.122;13.606;2022-11-18T01:23:05;98559.38;;;3.95;65.55
68656;BME280;55638;51.122;13.606;2022-11-18T01:24:37;98563.72;;;3.96;65.37
68656;BME280;55638;51.122;13.606;2022-11-18T01:26:11;98562.88;;;3.96;65.19
68656;BME280;55638;51.122;13.606;2022-11-18T01:27:43;98561.06;;;3.96;65.24
68656;BME280;55638;51.122;13.606;2022-11-18T01:29:15;98561.22;;;3.95;65.36
68656;BME280;55638;51.122;13.606;2022-11-18T01:30:48;98558.53;;;3.95;65.36
68656;BME280;55638;51.122;13.606;2022-11-18T01:32:20;98556.81;;;3.94;65.42
68656;BME280;55638;51.122;13.606;2022-11-18T01:33:56;98556.97;;;3.92;65.37
68656;BME280;55638;51.122;13.606;2022-11-18T01:35:29;98547.28;;;3.91;65.25
68656;BME280;55638;51.122;13.606;2022-11-18T01:37:00;98558.06;;;3.90;65.27
68656;BME280;55638;51.122;13.606;2022-11-18T01:38:32;98553.72;;;3.89;65.26
68656;BME280;55638;51.122;13.606;2022-11-18T01:40:06;98545.84;;;3.87;65.26
68656;BME280;55638;51.122;13.606;2022-11-18T01:41:38;98543.16;;;3.87;65.27
68656;BME280;55638;51.122;13.606;2022-11-18T01:43:14;98555.66;;;3.86;65.34
68656;BME280;55638;51.122;13.606;2022-11-18T01:44:57;98553.25;;;3.83;65.34
68656;BME280;55638;51.122;13.606;2022-11-18T01:46:32;98553.25;;;3.83;65.40
68656;BME280;55638;51.122;13.606;2022-11-18T01:49:45;98556.09;;;3.82;65.48
68656;BME280;55638;51.122;13.606;2022-11-18T01:51:20;98554.41;;;3.81;65.46
68656;BME280;55638;51.122;13.606;2022-11-18T01:52:56;98550.75;;;3.82;65.27
68656;BME280;55638;51.122;13.606;2022-11-18T01:54:35;98551.00;;;3.79;65.42
68656;BME280;55638;51.122;13.606;2022-11-18T01:56:11;98552.00;;;3.78;65.33
68656;BME280;55638;51.122;13.606;2022-11-18T01:57:46;98557.44;;;3.76;65.52
68656;BME280;55638;51.122;13.606;2022-11-18T01:59:23;98554.94;;;3.75;65.57
68656;BME280;55638;51.122;13.606;2022-11-18T02:00:56;98556.59;;;3.76;65.59
68656;BME280;55638;51.122;13.606;2022-11-18T02:02:31;98560.28;;;3.75;65.52
68656;BME280;55638;51.122;13.606;2022-11-18T02:04:04;98553.22;;;3.74;65.56
68656;BME280;55638;51.122;13.606;2022-11-18T02:05:37;98556.72;;;3.74;65.69
68656;BME280;55638;51.122;13.606;2022-11-18T02:07:09;98558.56;;;3.74;65.73
68656;BME280;55638;51.122;13.606;2022-11-18T02:08:42;98557.72;;;3.73;65.73
68656;BME280;55638;51.122;13.606;2022-11-18T02:10:20;98555.19;;;3.72;65.63
68656;BME280;55638;51.122;13.606;2022-11-18T02:11:52;98553.38;;;3.72;65.71
68656;BME280;55638;51.122;13.606;2022-11-18T02:13:25;98555.88;;;3.74;65.84
68656;BME280;55638;51.122;13.606;2022-11-18T02:14:57;98550.69;;;3.72;65.80
68656;BME280;55638;51.122;13.606;2022-11-18T02:18:19;98552.53;;;3.72;65.84
68656;BME280;55638;51.122;13.606;2022-11-18T02:22:43;98548.28;;;3.69;65.62
68656;BME280;55638;51.122;13.606;2022-11-18T02:24:40;98550.81;;;3.71;65.76
68656;BME280;55638;51.122;13.606;2022-11-18T02:29:58;98544.63;;;3.70;65.79
68656;BME280;55638;51.122;13.606;2022-11-18T02:32:02;98550.38;;;3.66;65.83
68656;BME280;55638;51.122;13.606;2022-11-18T02:35:19;98547.44;;;3.69;65.77
68656;BME280;55638;51.122;13.606;2022-11-18T02:37:02;98543.06;;;3.68;65.88
68656;BME280;55638;51.122;13.606;2022-11-18T02:38:42;98540.38;;;3.68;65.67
68656;BME280;55638;51.122;13.606;2022-11-18T02:40:20;98546.59;;;3.68;65.65
68656;BME280;55638;51.122;13.606;2022-11-18T02:41:55;98550.94;;;3.69;65.55
68656;BME280;55638;51.122;13.606;2022-11-18T02:43:31;98543.06;;;3.68;65.66
68656;BME280;55638;51.122;13.606;2022-11-18T02:45:07;98542.22;;;3.67;65.77
68656;BME280;55638;51.122;13.606;2022-11-18T02:46:44;98544.06;;;3.67;65.88
68656;BME280;55638;51.122;13.606;2022-11-18T02:48:19;98544.88;;;3.67;65.83
68656;BME280;55638;51.122;13.606;2022-11-18T02:49:57;98539.69;;;3.66;65.71
68656;BME280;55638;51.122;13.606;2022-11-18T02:51:32;98550.22;;;3.67;65.79
68656;BME280;55638;51.122;13.606;2022-11-18T02:53:06;98539.44;;;3.69;65.86
68656;BME280;55638;51.122;13.606;2022-11-18T02:54:40;98548.41;;;3.68;65.61
68656;BME280;55638;51.122;13.606;2022-11-18T02:56:14;98540.38;;;3.68;65.70
68656;BME280;55638;51.122;13.606;2022-11-18T02:57:48;98541.13;;;3.70;65.92
68656;BME280;55638;51.122;13.606;2022-11-18T02:59:20;98541.13;;;3.70;65.78
68656;BME280;55638;51.122;13.606;2022-11-18T03:00:53;98542.09;;;3.69;65.83
68656;BME280;55638;51.122;13.606;2022-11-18T03:02:25;98543.06;;;3.68;65.55
68656;BME280;55638;51.122;13.606;2022-11-18T03:03:57;98551.06;;;3.68;65.79
68656;BME280;55638;51.122;13.606;2022-11-18T03:05:37;98545.03;;;3.66;65.69
68656;BME280;55638;51.122;13.606;2022-11-18T03:07:20;98552.06;;;3.67;65.77
68656;BME280;55638;51.122;13.606;2022-11-18T03:09:02;98550.38;;;3.66;65.69
68656;BME280;55638;51.122;13.606;2022-11-18T03:10:43;98540.66;;;3.64;65.86
68656;BME280;55638;51.122;13.606;2022-11-18T03:12:37;98546.97;;;3.63;65.81
68656;BME280;55638;51.122;13.606;2022-11-18T03:14:19;98547.81;;;3.64;65.60
68656;BME280;55638;51.122;13.606;2022-11-18T03:16:01;98548.53;;;3.66;65.77
68656;BME280;55638;51.122;13.606;2022-11-18T03:17:50;98547.56;;;3.67;65.50
68656;BME280;55638;51.122;13.606;2022-11-18T03:20:13;98553.63;;;3.69;65.45
68656;BME280;55638;51.122;13.606;2022-11-18T03:21:32;98548.66;;;3.64;65.37
68656;BME280;55638;51.122;13.606;2022-11-18T03:23:13;98551.47;;;3.63;65.52
68656;BME280;55638;51.122;13.606;2022-11-18T03:24:57;98546.13;;;3.63;65.59
68656;BME280;55638;51.122;13.606;2022-11-18T03:26:32;98552.31;;;3.63;65.60
68656;BME280;55638;51.122;13.606;2022-11-18T03:28:22;98542.75;;;3.61;65.66
68656;BME280;55638;51.122;13.606;2022-11-18T03:30:02;98548.22;;;3.59;65.72
68656;BME280;55638;51.122;13.606;2022-11-18T03:31:52;98541.31;;;3.57;65.92
68656;BME280;55638;51.122;13.606;2022-11-18T03:33:33;98551.88;;;3.58;66.00
68656;BME280;55638;51.122;13.606;2022-11-18T03:35:12;98558.91;;;3.59;66.02
68656;BME280;55638;51.122;13.606;2022-11-18T03:36:49;98564.25;;;3.59;66.04
68656;BME280;55638;51.122;13.606;2022-11-18T03:38:28;98556.25;;;3.59;66.00
68656;BME280;55638;51.122;13.606;2022-11-18T03:40:08;98563.25;;;3.60;65.97
68656;BME280;55638;51.122;13.606;2022-11-18T03:41:45;98553.41;;;3.61;65.60
68656;BME280;55638;51.122;13.606;2022-11-18T03:43:23;98550.63;;;3.62;65.49
68656;BME280;55638;51.122;13.606;2022-11-18T03:45:04;98559.91;;;3.58;65.29
68656;BME280;55638;51.122;13.606;2022-11-18T03:46:41;98564.25;;;3.59;65.19
68656;BME280;55638;51.122;13.606;2022-11-18T03:48:26;98570.84;;;3.55;64.96
68656;BME280;55638;51.122;13.606;2022-11-18T03:50:06;98569.13;;;3.54;64.94
68656;BME280;55638;51.122;13.606;2022-11-18T03:51:43;98571.94;;;3.53;65.12
68656;BME280;55638;51.122;13.606;2022-11-18T03:53:19;98572.19;;;3.50;64.99
68656;BME280;55638;51.122;13.606;2022-11-18T03:54:53;98573.28;;;3.47;65.13
68656;BME280;55638;51.122;13.606;2022-11-18T03:56:36;98578.88;;;3.44;64.99
68656;BME280;55638;51.122;13.606;2022-11-18T03:59:44;98586.88;;;3.44;64.96
68656;BME280;55638;51.122;13.606;2022-11-18T04:01:24;98578.03;;;3.44;64.45
68656;BME280;55638;51.122;13.606;2022-11-18T04:02:59;98578.69;;;3.36;64.38
68656;BME280;55638;51.122;13.606;2022-11-18T04:04:31;98582.59;;;3.32;64.06
68656;BME280;55638;51.122;13.606;2022-11-18T04:06:09;98586.22;;;3.31;64.25
68656;BME280;55638;51.122;13.606;2022-11-18T04:08:00;98584.91;;;3.25;64.08
68656;BME280;55638;51.122;13.606;2022-11-18T04:09:39;98581.66;;;3.22;64.11
68656;BME280;55638;51.122;13.606;2022-11-18T04:11:16;98583.75;;;3.18;64.07
68656;BME280;55638;51.122;13.606;2022-11-18T04:14:48;98574.97;;;3.06;64.49
68656;BME280;55638;51.122;13.606;2022-11-18T04:16:22;98581.41;;;3.04;64.31
68656;BME280;55638;51.122;13.606;2022-11-18T04:17:54;98586.38;;;2.97;64.66
68656;BME280;55638;51.122;13.606;2022-11-18T04:19:26;98590.25;;;2.93;64.61
68656;BME280;55638;51.122;13.606;2022-11-18T04:20:58;98590.53;;;2.90;64.55
68656;BME280;55638;51.122;13.606;2022-11-18T04:22:30;98590.78;;;2.87;64.81
68656;BME280;55638;51.122;13.606;2022-11-18T04:24:02;98589.91;;;2.86;64.61
68656;BME280;55638;51.122;13.606;2022-11-18T04:25:34;98590.06;;;2.85;64.58
68656;BME280;55638;51.122;13.606;2022-11-18T04:27:06;98600.25;;;2.80;64.70
68656;BME280;55638;51.122;13.606;2022-11-18T04:28:38;98591.41;;;2.79;64.43
68656;BME280;55638;51.122;13.606;2022-11-18T04:30:11;98594.56;;;2.73;64.35
68656;BME280;55638;51.122;13.606;2022-11-18T04:31:43;98595.69;;;2.71;64.50
68656;BME280;55638;51.122;13.606;2022-11-18T04:33:14;98599.91;;;2.73;64.15
68656;BME280;55638;51.122;13.606;2022-11-18T04:34:46;98590.59;;;2.67;64.33
68656;BME280;55638;51.122;13.606;2022-11-18T04:36:18;98589.28;;;2.62;64.24
68656;BME280;55638;51.122;13.606;2022-11-18T04:37:50;98590.25;;;2.61;64.27
68656;BME280;55638;51.122;13.606;2022-11-18T04:39:22;98594.94;;;2.57;64.25
68656;BME280;55638;51.122;13.606;2022-11-18T04:40:54;98595.34;;;2.53;64.45
68656;BME280;55638;51.122;13.606;2022-11-18T04:42:25;98599.94;;;2.51;64.65
68656;BME280;55638;51.122;13.606;2022-11-18T04:43:57;98604.41;;;2.50;64.33
68656;BME280;55638;51.122;13.606;2022-11-18T04:45:29;98600.31;;;2.46;64.55
68656;BME280;55638;51.122;13.606;2022-11-18T04:47:03;98607.81;;;2.41;64.65
68656;BME280;55638;51.122;13.606;2022-11-18T04:48:35;98604.56;;;2.37;64.57
68656;BME280;55638;51.122;13.606;2022-11-18T04:50:07;98609.03;;;2.37;64.67
68656;BME280;55638;51.122;13.606;2022-11-18T04:51:41;98609.03;;;2.37;64.45
68656;BME280;55638;51.122;13.606;2022-11-18T04:53:13;98608.34;;;2.35;64.38
68656;BME280;55638;51.122;13.606;2022-11-18T04:54:44;98611.25;;;2.32;64.34
68656;BME280;55638;51.122;13.606;2022-11-18T04:56:17;98613.16;;;2.30;64.43
68656;BME280;55638;51.122;13.606;2022-11-18T04:57:48;98612.56;;;2.26;64.43
68656;BME280;55638;51.122;13.606;2022-11-18T04:59:23;98610.00;;;2.25;64.44
68656;BME280;55638;51.122;13.606;2022-11-18T05:00:55;98607.34;;;2.25;64.29
68656;BME280;55638;51.122;13.606;2022-11-18T05:02:27;98606.88;;;2.19;64.29
68656;BME280;55638;51.122;13.606;2022-11-18T05:04:00;98609.53;;;2.19;64.41
68656;BME280;55638;51.122;13.606;2022-11-18T05:05:33;98606.25;;;2.16;64.44
68656;BME280;55638;51.122;13.606;2022-11-18T05:07:05;98608.16;;;2.14;64.31
68656;BME280;55638;51.122;13.606;2022-11-18T05:08:38;98608.31;;;2.12;64.28
68656;BME280;55638;51.122;13.606;2022-11-18T05:10:10;98619.19;;;2.09;64.44
68656;BME280;55638;51.122;13.606;2022-11-18T05:11:42;98617.63;;;2.07;64.22
68656;BME280;55638;51.122;13.606;2022-11-18T05:13:32;98613.38;;;2.04;64.25
68656;BME280;55638;51.122;13.606;2022-11-18T05:15:04;98612.91;;;1.99;64.27
68656;BME280;55638;51.122;13.606;2022-11-18T05:16:36;98615.81;;;1.96;64.62
68656;BME280;55638;51.122;13.606;2022-11-18T05:18:09;98623.78;;;1.96;64.51
68656;BME280;55638;51.122;13.606;2022-11-18T05:19:41;98622.81;;;1.97;64.52
68656;BME280;55638;51.122;13.606;2022-11-18T05:21:13;98618.56;;;1.94;64.41
68656;BME280;55638;51.122;13.606;2022-11-18T05:22:45;98630.19;;;1.93;64.32
68656;BME280;55638;51.122;13.606;2022-11-18T05:24:17;98633.94;;;1.91;64.43
68656;BME280;55638;51.122;13.606;2022-11-18T05:25:48;98630.66;;;1.87;64.59
68656;BME280;55638;51.122;13.606;2022-11-18T05:27:20;98624.50;;;1.87;64.84
68656;BME280;55638;51.122;13.606;2022-11-18T05:28:52;98636.97;;;1.86;64.64
68656;BME280;55638;51.122;13.606;2022-11-18T05:30:24;98628.00;;;1.87;64.70
68656;BME280;55638;51.122;13.606;2022-11-18T05:31:56;98634.41;;;1.85;64.59
68656;BME280;55638;51.122;13.606;2022-11-18T05:33:27;98638.75;;;1.86;64.55
68656;BME280;55638;51.122;13.606;2022-11-18T05:34:59;98636.34;;;1.83;64.44
68656;BME280;55638;51.122;13.606;2022-11-18T05:36:31;98644.34;;;1.83;64.48
68656;BME280;55638;51.122;13.606;2022-11-18T05:38:03;98639.97;;;1.82;64.56
68656;BME280;55638;51.122;13.606;2022-11-18T05:39:35;98634.63;;;1.82;64.20
68656;BME280;55638;51.122;13.606;2022-11-18T05:41:07;98631.97;;;1.82;64.15
68656;BME280;55638;51.122;13.606;2022-11-18T05:42:39;98637.66;;;1.77;64.27
68656;BME280;55638;51.122;13.606;2022-11-18T05:44:29;98637.06;;;1.73;64.65
68656;BME280;55638;51.122;13.606;2022-11-18T05:46:02;98651.31;;;1.72;64.58
68656;BME280;55638;51.122;13.606;2022-11-18T05:47:34;98651.31;;;1.72;64.47
68656;BME280;55638;51.122;13.606;2022-11-18T05:49:26;98653.13;;;1.72;64.48
68656;BME280;55638;51.122;13.606;2022-11-18T05:50:58;98647.19;;;1.68;64.82
68656;BME280;55638;51.122;13.606;2022-11-18T05:52:30;98658.81;;;1.67;64.71
68656;BME280;55638;51.122;13.606;2022-11-18T05:54:03;98654.34;;;1.68;64.84
68656;BME280;55638;51.122;13.606;2022-11-18T05:55:39;98664.13;;;1.67;64.71
68656;BME280;55638;51.122;13.606;2022-11-18T05:57:12;98667.66;;;1.68;64.63
68656;BME280;55638;51.122;13.606;2022-11-18T05:58:44;98668.47;;;1.68;64.35
68656;BME280;55638;51.122;13.606;2022-11-18T06:00:16;98674.78;;;1.67;64.52
68656;BME280;55638;51.122;13.606;2022-11-18T06:03:25;98686.63;;;1.63;64.49
68656;BME280;55638;51.122;13.606;2022-11-18T06:05:03;98680.66;;;1.60;64.50
68656;BME280;55638;51.122;13.606;2022-11-18T06:06:35;98678.88;;;1.60;64.67
68656;BME280;55638;51.122;13.606;2022-11-18T06:08:09;98677.16;;;1.59;64.82
68656;BME280;55638;51.122;13.606;2022-11-18T06:09:45;98685.28;;;1.58;64.57
68656;BME280;55638;51.122;13.606;2022-11-18T06:11:20;98682.72;;;1.56;64.78
68656;BME280;55638;51.122;13.606;2022-11-18T06:12:55;98690.69;;;1.56;64.86
68656;BME280;55638;51.122;13.606;2022-11-18T06:14:39;98689.75;;;1.57;64.57
68656;BME280;55638;51.122;13.606;2022-11-18T06:16:12;98695.91;;;1.58;64.45
68656;BME280;55638;51.122;13.606;2022-11-18T06:17:51;98702.31;;;1.55;64.47
68656;BME280;55638;51.122;13.606;2022-11-18T06:19:26;98698.91;;;1.53;64.80
68656;BME280;55638;51.122;13.606;2022-11-18T06:21:03;98697.44;;;1.49;64.51
68656;BME280;55638;51.122;13.606;2022-11-18T06:22:36;98700.94;;;1.49;64.64
68656;BME280;55638;51.122;13.606;2022-11-18T06:24:16;98701.09;;;1.48;65.01
68656;BME280;55638;51.122;13.606;2022-11-18T06:25:48;98702.91;;;1.47;65.02
68656;BME280;55638;51.122;13.606;2022-11-18T06:27:20;98704.69;;;1.47;64.85
68656;BME280;55638;51.122;13.606;2022-11-18T06:28:53;98710.13;;;1.45;64.97
68656;BME280;55638;51.122;13.606;2022-11-18T06:30:26;98707.34;;;1.47;65.05
68656;BME280;55638;51.122;13.606;2022-11-18T06:31:58;98703.84;;;1.46;65.06
68656;BME280;55638;51.122;13.606;2022-11-18T06:33:30;98707.34;;;1.47;65.21
68656;BME280;55638;51.122;13.606;2022-11-18T06:35:02;98715.31;;;1.47;65.07
68656;BME280;55638;51.122;13.606;2022-11-18T06:36:33;98717.66;;;1.51;64.87
68656;BME280;55638;51.122;13.606;2022-11-18T06:38:05;98717.03;;;1.48;64.77
68656;BME280;55638;51.122;13.606;2022-11-18T06:39:37;98722.22;;;1.49;64.80
68656;BME280;55638;51.122;13.606;2022-11-18T06:41:09;98722.38;;;1.48;64.86
68656;BME280;55638;51.122;13.606;2022-11-18T06:42:40;98721.38;;;1.49;64.94
68656;BME280;55638;51.122;13.606;2022-11-18T06:44:31;98721.38;;;1.49;64.70
68656;BME280;55638;51.122;13.606;2022-11-18T06:46:04;98726.72;;;1.49;64.79
68656;BME280;55638;51.122;13.606;2022-11-18T06:47:56;98726.72;;;1.49;64.81
68656;BME280;55638;51.122;13.606;2022-11-18T06:49:28;98728.31;;;1.51;64.62
68656;BME280;55638;51.122;13.606;2022-11-18T06:51:03;98729.59;;;1.46;64.54
68656;BME280;55638;51.122;13.606;2022-11-18T06:52:35;98729.38;;;1.49;64.55
68656;BME280;55638;51.122;13.606;2022-11-18T06:54:07;98737.47;;;1.47;64.51
68656;BME280;55638;51.122;13.606;2022-11-18T06:55:41;98739.38;;;1.45;64.62
68656;BME280;55638;51.122;13.606;2022-11-18T06:57:13;98738.78;;;1.42;64.66
68656;BME280;55638;51.122;13.606;2022-11-18T06:58:45;98738.78;;;1.42;64.46
68656;BME280;55638;51.122;13.606;2022-11-18T07:00:17;98737.94;;;1.41;64.60
68656;BME280;55638;51.122;13.606;2022-11-18T07:01:50;98746.97;;;1.39;64.69
68656;BME280;55638;51.122;13.606;2022-11-18T07:03:24;98748.66;;;1.40;64.67
68656;BME280;55638;51.122;13.606;2022-11-18T07:04:56;98744.94;;;1.42;64.38
68656;BME280;55638;51.122;13.606;2022-11-18T07:06:30;98752.06;;;1.42;64.08
68656;BME280;55638;51.122;13.606;2022-11-18T07:08:02;98753.97;;;1.40;64.12
68656;BME280;55638;51.122;13.606;2022-11-18T07:09:35;98755.09;;;1.37;63.93
68656;BME280;55638;51.122;13.606;2022-11-18T07:11:10;98757.09;;;1.34;64.19
68656;BME280;55638;51.122;13.606;2022-11-18T07:12:42;98764.34;;;1.32;64.10
68656;BME280;55638;51.122;13.606;2022-11-18T07:14:14;98759.97;;;1.30;64.20
68656;BME280;55638;51.122;13.606;2022-11-18T07:15:46;98759.03;;;1.32;64.16
68656;BME280;55638;51.122;13.606;2022-11-18T07:17:18;98757.56;;;1.27;64.31
68656;BME280;55638;51.122;13.606;2022-11-18T07:18:51;98767.47;;;1.25;64.40
68656;BME280;55638;51.122;13.606;2022-11-18T07:20:23;98766.63;;;1.25;64.05
68656;BME280;55638;51.122;13.606;2022-11-18T07:21:55;98768.44;;;1.24;64.02
68656;BME280;55638;51.122;13.606;2022-11-18T07:23:28;98769.38;;;1.23;64.14
68656;BME280;55638;51.122;13.606;2022-11-18T07:25:00;98766.00;;;1.21;64.27
68656;BME280;55638;51.122;13.606;2022-11-18T07:26:33;98768.75;;;1.20;64.12
68656;BME280;55638;51.122;13.606;2022-11-18T07:28:05;98768.13;;;1.16;64.19
68656;BME280;55638;51.122;13.606;2022-11-18T07:29:37;98777.16;;;1.14;64.33
68656;BME280;55638;51.122;13.606;2022-11-18T07:31:14;98771.84;;;1.14;64.40
68656;BME280;55638;51.122;13.606;2022-11-18T07:32:46;98769.41;;;1.11;64.40
68656;BME280;55638;51.122;13.606;2022-11-18T07:34:17;98774.84;;;1.09;64.45
68656;BME280;55638;51.122;13.606;2022-11-18T07:35:49;98769.75;;;1.06;64.42
68656;BME280;55638;51.122;13.606;2022-11-18T07:37:21;98772.50;;;1.04;64.71
68656;BME280;55638;51.122;13.606;2022-11-18T07:38:53;98769.84;;;1.04;64.60
68656;BME280;55638;51.122;13.606;2022-11-18T07:40:26;98778.78;;;1.03;64.75
68656;BME280;55638;51.122;13.606;2022-11-18T07:41:57;98776.34;;;1.00;64.56
68656;BME280;55638;51.122;13.606;2022-11-18T07:43:29;98779.84;;;1.01;64.83
68656;BME280;55638;51.122;13.606;2022-11-18T07:45:01;98781.78;;;0.99;64.74
68656;BME280;55638;51.122;13.606;2022-11-18T07:46:37;98784.44;;;0.99;64.89
68656;BME280;55638;51.122;13.606;2022-11-18T07:48:08;98781.66;;;1.00;64.79
68656;BME280;55638;51.122;13.606;2022-11-18T07:49:40;98791.44;;;1.00;64.86
68656;BME280;55638;51.122;13.606;2022-11-18T07:51:15;98787.19;;;0.97;64.75
68656;BME280;55638;51.122;13.606;2022-11-18T07:52:47;98790.59;;;0.99;65.10
68656;BME280;55638;51.122;13.606;2022-11-18T07:54:19;98785.28;;;0.99;64.97
68656;BME280;55638;51.122;13.606;2022-11-18T07:55:50;98787.09;;;0.99;64.79
68656;BME280;55638;51.122;13.606;2022-11-18T07:57:22;98798.59;;;0.99;64.92
68656;BME280;55638;51.122;13.606;2022-11-18T07:58:54;98796.78;;;1.00;64.87
68656;BME280;55638;51.122;13.606;2022-11-18T08:00:26;98797.53;;;1.02;65.06
68656;BME280;55638;51.122;13.606;2022-11-18T08:01:58;98809.72;;;1.04;64.72
68656;BME280;55638;51.122;13.606;2022-11-18T08:03:30;98795.38;;;1.07;64.22
68656;BME280;55638;51.122;13.606;2022-11-18T08:05:02;98804.53;;;1.03;64.30
68656;BME280;55638;51.122;13.606;2022-11-18T08:06:35;98803.78;;;1.01;64.43
68656;BME280;55638;51.122;13.606;2022-11-18T08:08:07;98797.59;;;1.00;64.38
68656;BME280;55638;51.122;13.606;2022-11-18T08:09:39;98803.91;;;0.99;64.68
68656;BME280;55638;51.122;13.606;2022-11-18T08:11:13;98797.72;;;0.99;64.52
68656;BME280;55638;51.122;13.606;2022-11-18T08:12:52;98796.97;;;0.97;64.81
68656;BME280;55638;51.122;13.606;2022-11-18T08:14:25;98795.91;;;0.99;64.52
68656;BME280;55638;51.122;13.606;2022-11-18T08:15:58;98795.06;;;0.99;64.56
68656;BME280;55638;51.122;13.606;2022-11-18T08:17:31;98790.81;;;0.96;64.52
68656;BME280;55638;51.122;13.606;2022-11-18T08:19:03;98790.91;;;0.95;64.81
68656;BME280;55638;51.122;13.606;2022-11-18T08:20:34;98793.47;;;0.96;64.87
68656;BME280;55638;51.122;13.606;2022-11-18T08:22:06;98795.28;;;0.96;64.97
68656;BME280;55638;51.122;13.606;2022-11-18T08:23:38;98792.63;;;0.96;64.82
68656;BME280;55638;51.122;13.606;2022-11-18T08:25:13;98791.78;;;0.95;64.55
68656;BME280;55638;51.122;13.606;2022-11-18T08:26:45;98795.28;;;0.96;64.68
68656;BME280;55638;51.122;13.606;2022-11-18T08:28:17;98799.75;;;0.95;64.78
68656;BME280;55638;51.122;13.606;2022-11-18T08:29:49;98805.16;;;0.94;64.94
68656;BME280;55638;51.122;13.606;2022-11-18T08:31:23;98811.47;;;0.93;64.56
68656;BME280;55638;51.122;13.606;2022-11-18T08:32:55;98815.81;;;0.94;64.88
68656;BME280;55638;51.122;13.606;2022-11-18T08:34:27;98817.63;;;0.93;64.54
68656;BME280;55638;51.122;13.606;2022-11-18T08:36:07;98822.09;;;0.93;64.27
68656;BME280;55638;51.122;13.606;2022-11-18T08:37:39;98827.19;;;0.96;64.61